Aeroporto :
LOGIN :

Iscrizione | Disclaimer

   EN    FR    IT 

 










Sommario :    VFR   VFR Marginale   IFR   IFR Intensivo   IFR Molto Intensivo
Visibilità : 
Base nubi : 
>= 8 km
>= 3000ft
5 / 8 km
1000 / 3000 ft
1500m / 5 km
500 / 1000 ft
800 / 1500m
200 / 500 ft
< 800m
< 200 ft
Simboli :   Temporali  Nebbia  Neve Forte  Precipitazioni Forti  Vento > 20 kt
SIGMETs :   Varie  Temporali  Ghiacco  Turbolenza  Onda orograficha  Ceneri Vulcaniche






- Altitudine del aeroporto : 3 ft
- Codice IATA : DHR


EHKD - Den Helder De Kooy

ULTIMO METAR :
  • 210025Z AUTO 28024KT 250V310 9999 SCT026 BKN030 06/01 Q1015 BLU

METARs OBSOLETI :
  • 202355Z AUTO 28024G36KT 250V310 9999 FEW029 06/01 Q1014 BLU
  • 202325Z AUTO 28021G31KT 250V310 9999 SCT027 BKN031 BKN037 06/02 Q1014 BLU
  • 202255Z AUTO 28024G34KT 250V320 9999 FEW029 BKN033 BKN039 06/01 Q1013 BLU
  • 202225Z AUTO 28023KT 250V310 9999 FEW028 06/01 Q1012 BLU

TAF TAF EHKD
Valido dal 20 a 18 ore il 21 a 06 ore UTC


201744Z 2018/2106 22022G35KT 9999 SCT015 OVC020
TEMPO 2018/2019 2500 RA SHRA FEW006 SCT010 SCT018CB
BECMG 2018/2020 29022G35KT SCT025
PROB40
TEMPO 2018/2020 4000 SHRA TSRA SCT012 SCT020CB



MetMap, La meteo Aeronautica in un colpo d'occhio ! - Copyright ORBIFLY Dicembre 2007 - Disclaimer

ORBIFLY MET'MAP TEAM :

Programmazione e sviluppo : Alexandra Zaïnal
Concezione : Baudouin d'Aumeries
Aiuto per la programmazione : Marc-Olivier Méhu
Supporto tecnico e logistico : Manuel Goepfert
Aiuto per la traduzione : Arnaldo La Scala

Contatto : metmap@orbifly.com




FONTI E CREDITI :

   NOAA